sensor_id;sensor_type;location;lat;lon;timestamp;P1;durP1;ratioP1;P2;durP2;ratioP2
6019;SDS011;3038;51.122;6.840;2023-05-10T00:02:39;22.70;;;12.97;;
6019;SDS011;3038;51.122;6.840;2023-05-10T00:05:08;24.93;;;14.57;;
6019;SDS011;3038;51.122;6.840;2023-05-10T00:08:20;24.20;;;13.80;;
6019;SDS011;3038;51.122;6.840;2023-05-10T00:11:14;24.67;;;14.00;;
6019;SDS011;3038;51.122;6.840;2023-05-10T00:14:06;28.03;;;14.80;;
6019;SDS011;3038;51.122;6.840;2023-05-10T00:16:49;25.83;;;14.03;;
6019;SDS011;3038;51.122;6.840;2023-05-10T00:19:18;29.97;;;16.43;;
6019;SDS011;3038;51.122;6.840;2023-05-10T00:21:46;29.83;;;15.90;;
6019;SDS011;3038;51.122;6.840;2023-05-10T00:24:21;28.37;;;15.90;;
6019;SDS011;3038;51.122;6.840;2023-05-10T00:27:02;29.87;;;16.83;;
6019;SDS011;3038;51.122;6.840;2023-05-10T00:30:07;32.43;;;16.83;;
6019;SDS011;3038;51.122;6.840;2023-05-10T00:32:35;27.10;;;16.47;;
6019;SDS011;3038;51.122;6.840;2023-05-10T00:35:41;25.80;;;14.70;;
6019;SDS011;3038;51.122;6.840;2023-05-10T00:38:09;25.23;;;14.90;;
6019;SDS011;3038;51.122;6.840;2023-05-10T00:40:58;27.87;;;14.90;;
6019;SDS011;3038;51.122;6.840;2023-05-10T00:43:27;31.40;;;15.53;;
6019;SDS011;3038;51.122;6.840;2023-05-10T00:45:52;28.63;;;15.93;;
6019;SDS011;3038;51.122;6.840;2023-05-10T00:49:11;29.10;;;15.50;;
6019;SDS011;3038;51.122;6.840;2023-05-10T00:51:51;29.17;;;15.80;;
6019;SDS011;3038;51.122;6.840;2023-05-10T00:54:50;30.10;;;16.27;;
6019;SDS011;3038;51.122;6.840;2023-05-10T00:57:20;28.30;;;15.07;;
6019;SDS011;3038;51.122;6.840;2023-05-10T00:59:52;25.63;;;14.47;;
6019;SDS011;3038;51.122;6.840;2023-05-10T01:02:21;19.83;;;12.90;;
6019;SDS011;3038;51.122;6.840;2023-05-10T01:04:53;21.57;;;13.37;;
6019;SDS011;3038;51.122;6.840;2023-05-10T01:07:25;25.70;;;14.70;;
6019;SDS011;3038;51.122;6.840;2023-05-10T01:09:57;26.30;;;14.73;;
6019;SDS011;3038;51.122;6.840;2023-05-10T01:12:39;23.83;;;14.10;;
6019;SDS011;3038;51.122;6.840;2023-05-10T01:15:17;25.73;;;14.33;;
6019;SDS011;3038;51.122;6.840;2023-05-10T01:17:52;24.77;;;13.60;;
6019;SDS011;3038;51.122;6.840;2023-05-10T01:28:17;24.13;;;12.80;;
6019;SDS011;3038;51.122;6.840;2023-05-10T01:35:20;22.13;;;12.70;;
6019;SDS011;3038;51.122;6.840;2023-05-10T01:38:04;19.13;;;12.87;;
6019;SDS011;3038;51.122;6.840;2023-05-10T01:43:51;22.63;;;12.20;;
6019;SDS011;3038;51.122;6.840;2023-05-10T01:47:16;21.43;;;10.80;;
6019;SDS011;3038;51.122;6.840;2023-05-10T01:50:30;22.60;;;12.53;;
6019;SDS011;3038;51.122;6.840;2023-05-10T01:53:36;19.43;;;11.63;;
6019;SDS011;3038;51.122;6.840;2023-05-10T02:00:29;18.13;;;10.30;;
6019;SDS011;3038;51.122;6.840;2023-05-10T02:03:35;19.50;;;10.70;;
6019;SDS011;3038;51.122;6.840;2023-05-10T02:06:51;17.00;;;10.90;;
6019;SDS011;3038;51.122;6.840;2023-05-10T02:09:44;18.70;;;10.80;;
6019;SDS011;3038;51.122;6.840;2023-05-10T02:15:31;23.47;;;13.13;;
6019;SDS011;3038;51.122;6.840;2023-05-10T02:18:20;18.20;;;10.23;;
6019;SDS011;3038;51.122;6.840;2023-05-10T02:21:44;18.17;;;11.23;;
6019;SDS011;3038;51.122;6.840;2023-05-10T02:28:31;15.97;;;10.20;;
6019;SDS011;3038;51.122;6.840;2023-05-10T02:31:54;13.13;;;8.13;;
6019;SDS011;3038;51.122;6.840;2023-05-10T02:34:34;10.67;;;7.43;;
6019;SDS011;3038;51.122;6.840;2023-05-10T02:37:40;17.23;;;8.33;;
6019;SDS011;3038;51.122;6.840;2023-05-10T02:40:58;10.90;;;7.50;;
6019;SDS011;3038;51.122;6.840;2023-05-10T02:43:56;12.93;;;7.97;;
6019;SDS011;3038;51.122;6.840;2023-05-10T02:46:46;11.30;;;7.87;;
6019;SDS011;3038;51.122;6.840;2023-05-10T02:49:22;11.73;;;8.10;;
6019;SDS011;3038;51.122;6.840;2023-05-10T02:51:59;13.13;;;8.10;;
6019;SDS011;3038;51.122;6.840;2023-05-10T02:55:14;13.97;;;7.50;;
6019;SDS011;3038;51.122;6.840;2023-05-10T02:58:14;9.40;;;7.10;;
6019;SDS011;3038;51.122;6.840;2023-05-10T03:00:44;10.80;;;7.33;;
6019;SDS011;3038;51.122;6.840;2023-05-10T03:03:35;11.87;;;7.27;;
6019;SDS011;3038;51.122;6.840;2023-05-10T03:06:01;12.37;;;7.77;;
6019;SDS011;3038;51.122;6.840;2023-05-10T03:08:58;16.17;;;9.00;;
6019;SDS011;3038;51.122;6.840;2023-05-10T03:14:42;13.90;;;8.27;;
6019;SDS011;3038;51.122;6.840;2023-05-10T03:18:12;15.50;;;8.60;;
6019;SDS011;3038;51.122;6.840;2023-05-10T03:20:56;12.83;;;8.07;;
6019;SDS011;3038;51.122;6.840;2023-05-10T03:23:45;13.00;;;8.47;;
6019;SDS011;3038;51.122;6.840;2023-05-10T03:26:14;16.93;;;8.70;;
6019;SDS011;3038;51.122;6.840;2023-05-10T03:28:45;13.47;;;9.23;;
6019;SDS011;3038;51.122;6.840;2023-05-10T03:31:21;12.97;;;8.97;;
6019;SDS011;3038;51.122;6.840;2023-05-10T03:33:59;15.10;;;9.93;;
6019;SDS011;3038;51.122;6.840;2023-05-10T03:36:31;14.53;;;8.87;;
6019;SDS011;3038;51.122;6.840;2023-05-10T03:38:57;20.00;;;10.33;;
6019;SDS011;3038;51.122;6.840;2023-05-10T03:41:25;16.40;;;10.53;;
6019;SDS011;3038;51.122;6.840;2023-05-10T03:44:10;19.47;;;10.60;;
6019;SDS011;3038;51.122;6.840;2023-05-10T03:46:47;15.47;;;9.40;;
6019;SDS011;3038;51.122;6.840;2023-05-10T03:49:16;17.03;;;10.40;;
6019;SDS011;3038;51.122;6.840;2023-05-10T03:51:47;14.70;;;9.67;;
6019;SDS011;3038;51.122;6.840;2023-05-10T03:54:15;16.83;;;10.47;;
6019;SDS011;3038;51.122;6.840;2023-05-10T03:56:41;20.70;;;10.77;;
6019;SDS011;3038;51.122;6.840;2023-05-10T03:59:07;18.57;;;10.67;;
6019;SDS011;3038;51.122;6.840;2023-05-10T04:01:34;18.90;;;11.70;;
6019;SDS011;3038;51.122;6.840;2023-05-10T04:03:59;19.00;;;11.33;;
6019;SDS011;3038;51.122;6.840;2023-05-10T04:06:25;15.57;;;10.47;;
6019;SDS011;3038;51.122;6.840;2023-05-10T04:08:50;17.27;;;11.27;;
6019;SDS011;3038;51.122;6.840;2023-05-10T04:11:15;19.07;;;11.67;;
6019;SDS011;3038;51.122;6.840;2023-05-10T04:13:41;19.23;;;11.30;;
6019;SDS011;3038;51.122;6.840;2023-05-10T04:16:08;21.97;;;12.40;;
6019;SDS011;3038;51.122;6.840;2023-05-10T04:18:33;15.70;;;11.37;;
6019;SDS011;3038;51.122;6.840;2023-05-10T04:20:58;22.70;;;13.20;;
6019;SDS011;3038;51.122;6.840;2023-05-10T04:23:24;22.97;;;13.60;;
6019;SDS011;3038;51.122;6.840;2023-05-10T04:25:49;30.60;;;15.80;;
6019;SDS011;3038;51.122;6.840;2023-05-10T04:28:15;34.87;;;18.77;;
6019;SDS011;3038;51.122;6.840;2023-05-10T04:30:40;29.60;;;16.87;;
6019;SDS011;3038;51.122;6.840;2023-05-10T04:33:06;35.57;;;19.63;;
6019;SDS011;3038;51.122;6.840;2023-05-10T04:35:31;38.43;;;21.50;;
6019;SDS011;3038;51.122;6.840;2023-05-10T04:37:57;34.30;;;19.93;;
6019;SDS011;3038;51.122;6.840;2023-05-10T04:40:22;32.83;;;20.07;;
6019;SDS011;3038;51.122;6.840;2023-05-10T04:42:48;35.10;;;19.43;;
6019;SDS011;3038;51.122;6.840;2023-05-10T04:45:13;33.23;;;20.60;;
6019;SDS011;3038;51.122;6.840;2023-05-10T04:47:41;35.00;;;20.50;;
6019;SDS011;3038;51.122;6.840;2023-05-10T04:50:07;32.30;;;20.33;;
6019;SDS011;3038;51.122;6.840;2023-05-10T04:52:33;35.93;;;22.70;;
6019;SDS011;3038;51.122;6.840;2023-05-10T04:54:58;41.27;;;22.23;;
6019;SDS011;3038;51.122;6.840;2023-05-10T04:57:24;33.20;;;21.30;;
6019;SDS011;3038;51.122;6.840;2023-05-10T04:59:49;35.20;;;21.67;;
6019;SDS011;3038;51.122;6.840;2023-05-10T05:02:14;30.93;;;20.63;;
6019;SDS011;3038;51.122;6.840;2023-05-10T05:04:40;20.70;;;14.63;;
6019;SDS011;3038;51.122;6.840;2023-05-10T05:07:05;24.07;;;16.63;;
6019;SDS011;3038;51.122;6.840;2023-05-10T05:09:31;20.27;;;16.03;;
6019;SDS011;3038;51.122;6.840;2023-05-10T05:11:59;22.60;;;17.17;;
6019;SDS011;3038;51.122;6.840;2023-05-10T05:14:25;21.00;;;16.83;;
6019;SDS011;3038;51.122;6.840;2023-05-10T05:16:51;26.77;;;17.00;;
6019;SDS011;3038;51.122;6.840;2023-05-10T05:19:17;20.33;;;16.60;;
6019;SDS011;3038;51.122;6.840;2023-05-10T05:21:42;17.73;;;15.57;;
6019;SDS011;3038;51.122;6.840;2023-05-10T05:24:08;21.80;;;15.13;;
6019;SDS011;3038;51.122;6.840;2023-05-10T05:26:33;18.17;;;14.20;;
6019;SDS011;3038;51.122;6.840;2023-05-10T05:28:59;21.00;;;16.00;;
6019;SDS011;3038;51.122;6.840;2023-05-10T05:31:24;19.80;;;14.30;;
6019;SDS011;3038;51.122;6.840;2023-05-10T05:33:50;21.20;;;14.70;;
6019;SDS011;3038;51.122;6.840;2023-05-10T05:36:15;22.67;;;15.43;;
6019;SDS011;3038;51.122;6.840;2023-05-10T05:38:40;19.30;;;14.20;;
6019;SDS011;3038;51.122;6.840;2023-05-10T05:41:06;19.80;;;14.17;;
6019;SDS011;3038;51.122;6.840;2023-05-10T05:43:31;17.77;;;14.03;;
6019;SDS011;3038;51.122;6.840;2023-05-10T05:45:56;22.03;;;15.53;;
6019;SDS011;3038;51.122;6.840;2023-05-10T05:48:22;21.73;;;15.77;;
6019;SDS011;3038;51.122;6.840;2023-05-10T05:50:48;19.30;;;15.30;;
6019;SDS011;3038;51.122;6.840;2023-05-10T05:53:14;28.53;;;14.90;;
6019;SDS011;3038;51.122;6.840;2023-05-10T05:55:39;22.03;;;15.27;;
6019;SDS011;3038;51.122;6.840;2023-05-10T05:58:05;18.37;;;14.77;;
6019;SDS011;3038;51.122;6.840;2023-05-10T06:00:30;20.60;;;14.63;;
6019;SDS011;3038;51.122;6.840;2023-05-10T06:02:56;17.70;;;14.07;;
6019;SDS011;3038;51.122;6.840;2023-05-10T06:05:21;20.10;;;15.07;;
6019;SDS011;3038;51.122;6.840;2023-05-10T06:07:47;18.80;;;14.67;;
6019;SDS011;3038;51.122;6.840;2023-05-10T06:10:12;19.00;;;14.30;;
6019;SDS011;3038;51.122;6.840;2023-05-10T06:12:38;21.40;;;13.97;;
6019;SDS011;3038;51.122;6.840;2023-05-10T06:15:04;24.97;;;15.23;;
6019;SDS011;3038;51.122;6.840;2023-05-10T06:17:30;19.37;;;16.00;;
6019;SDS011;3038;51.122;6.840;2023-05-10T06:19:55;20.10;;;15.67;;
6019;SDS011;3038;51.122;6.840;2023-05-10T06:22:21;25.90;;;15.90;;
6019;SDS011;3038;51.122;6.840;2023-05-10T06:24:47;20.10;;;15.60;;
6019;SDS011;3038;51.122;6.840;2023-05-10T06:27:13;24.27;;;15.60;;
6019;SDS011;3038;51.122;6.840;2023-05-10T06:29:39;20.40;;;14.87;;
6019;SDS011;3038;51.122;6.840;2023-05-10T06:32:04;18.20;;;14.13;;
6019;SDS011;3038;51.122;6.840;2023-05-10T06:34:30;22.70;;;16.13;;
6019;SDS011;3038;51.122;6.840;2023-05-10T06:36:55;24.33;;;15.20;;
6019;SDS011;3038;51.122;6.840;2023-05-10T06:39:20;31.33;;;16.70;;
6019;SDS011;3038;51.122;6.840;2023-05-10T06:41:46;21.17;;;17.10;;
6019;SDS011;3038;51.122;6.840;2023-05-10T06:44:11;24.30;;;17.37;;
6019;SDS011;3038;51.122;6.840;2023-05-10T06:46:38;27.80;;;17.70;;
6019;SDS011;3038;51.122;6.840;2023-05-10T06:49:03;22.93;;;17.50;;
6019;SDS011;3038;51.122;6.840;2023-05-10T06:51:29;19.77;;;15.93;;
6019;SDS011;3038;51.122;6.840;2023-05-10T06:53:54;26.67;;;17.97;;
6019;SDS011;3038;51.122;6.840;2023-05-10T06:56:20;23.37;;;16.83;;
6019;SDS011;3038;51.122;6.840;2023-05-10T06:58:46;25.67;;;16.50;;
6019;SDS011;3038;51.122;6.840;2023-05-10T07:01:12;20.50;;;16.03;;
6019;SDS011;3038;51.122;6.840;2023-05-10T07:03:37;26.63;;;17.07;;
6019;SDS011;3038;51.122;6.840;2023-05-10T07:06:03;20.33;;;14.77;;
6019;SDS011;3038;51.122;6.840;2023-05-10T07:08:30;18.90;;;15.40;;
6019;SDS011;3038;51.122;6.840;2023-05-10T07:10:59;20.67;;;14.10;;
6019;SDS011;3038;51.122;6.840;2023-05-10T07:13:26;22.57;;;15.60;;
6019;SDS011;3038;51.122;6.840;2023-05-10T07:15:51;19.80;;;14.70;;
6019;SDS011;3038;51.122;6.840;2023-05-10T07:18:16;17.50;;;13.93;;
6019;SDS011;3038;51.122;6.840;2023-05-10T07:20:42;22.30;;;16.40;;
6019;SDS011;3038;51.122;6.840;2023-05-10T07:23:07;20.27;;;15.53;;
6019;SDS011;3038;51.122;6.840;2023-05-10T07:25:32;20.07;;;15.50;;
6019;SDS011;3038;51.122;6.840;2023-05-10T07:27:58;19.00;;;14.90;;
6019;SDS011;3038;51.122;6.840;2023-05-10T07:30:23;20.13;;;15.30;;
6019;SDS011;3038;51.122;6.840;2023-05-10T07:32:49;20.70;;;16.20;;
6019;SDS011;3038;51.122;6.840;2023-05-10T07:35:14;18.77;;;14.50;;
6019;SDS011;3038;51.122;6.840;2023-05-10T07:37:39;21.70;;;14.37;;
6019;SDS011;3038;51.122;6.840;2023-05-10T07:40:05;23.43;;;16.03;;
6019;SDS011;3038;51.122;6.840;2023-05-10T07:42:31;19.23;;;15.00;;
6019;SDS011;3038;51.122;6.840;2023-05-10T07:44:56;21.50;;;16.40;;
6019;SDS011;3038;51.122;6.840;2023-05-10T07:47:22;22.90;;;15.43;;
6019;SDS011;3038;51.122;6.840;2023-05-10T07:49:48;16.53;;;14.00;;
6019;SDS011;3038;51.122;6.840;2023-05-10T07:52:13;21.47;;;15.20;;
6019;SDS011;3038;51.122;6.840;2023-05-10T07:54:39;18.23;;;13.53;;
6019;SDS011;3038;51.122;6.840;2023-05-10T07:57:04;17.77;;;14.20;;
6019;SDS011;3038;51.122;6.840;2023-05-10T07:59:30;16.80;;;11.70;;
6019;SDS011;3038;51.122;6.840;2023-05-10T08:01:55;16.03;;;13.20;;
6019;SDS011;3038;51.122;6.840;2023-05-10T08:04:21;18.93;;;15.17;;
6019;SDS011;3038;51.122;6.840;2023-05-10T08:06:47;20.43;;;14.30;;
6019;SDS011;3038;51.122;6.840;2023-05-10T08:09:12;18.00;;;13.43;;
6019;SDS011;3038;51.122;6.840;2023-05-10T08:11:38;19.30;;;13.90;;
6019;SDS011;3038;51.122;6.840;2023-05-10T08:14:03;20.70;;;14.60;;
6019;SDS011;3038;51.122;6.840;2023-05-10T08:16:29;21.00;;;15.90;;
6019;SDS011;3038;51.122;6.840;2023-05-10T08:18:54;22.97;;;18.70;;
6019;SDS011;3038;51.122;6.840;2023-05-10T08:21:20;26.60;;;19.87;;
6019;SDS011;3038;51.122;6.840;2023-05-10T08:23:45;33.73;;;21.63;;
6019;SDS011;3038;51.122;6.840;2023-05-10T08:26:11;42.10;;;26.00;;
6019;SDS011;3038;51.122;6.840;2023-05-10T08:28:36;35.87;;;25.73;;
6019;SDS011;3038;51.122;6.840;2023-05-10T08:31:01;41.00;;;27.87;;
6019;SDS011;3038;51.122;6.840;2023-05-10T08:33:27;43.27;;;27.43;;
6019;SDS011;3038;51.122;6.840;2023-05-10T08:35:52;37.50;;;27.00;;
6019;SDS011;3038;51.122;6.840;2023-05-10T08:38:18;42.00;;;27.17;;
6019;SDS011;3038;51.122;6.840;2023-05-10T08:40:48;43.50;;;29.40;;
6019;SDS011;3038;51.122;6.840;2023-05-10T08:43:16;36.07;;;25.37;;
6019;SDS011;3038;51.122;6.840;2023-05-10T08:45:44;40.20;;;27.50;;
6019;SDS011;3038;51.122;6.840;2023-05-10T08:48:14;36.47;;;24.47;;
6019;SDS011;3038;51.122;6.840;2023-05-10T08:50:41;35.90;;;26.60;;
6019;SDS011;3038;51.122;6.840;2023-05-10T08:53:17;37.37;;;25.57;;
6019;SDS011;3038;51.122;6.840;2023-05-10T08:55:49;34.87;;;24.30;;
6019;SDS011;3038;51.122;6.840;2023-05-10T08:58:15;34.30;;;25.20;;
6019;SDS011;3038;51.122;6.840;2023-05-10T09:00:41;34.93;;;25.37;;
6019;SDS011;3038;51.122;6.840;2023-05-10T09:03:07;38.13;;;27.50;;
6019;SDS011;3038;51.122;6.840;2023-05-10T09:05:32;39.27;;;25.23;;
6019;SDS011;3038;51.122;6.840;2023-05-10T09:07:58;37.63;;;23.90;;
6019;SDS011;3038;51.122;6.840;2023-05-10T09:10:25;36.27;;;25.23;;
6019;SDS011;3038;51.122;6.840;2023-05-10T09:12:53;38.77;;;26.40;;
6019;SDS011;3038;51.122;6.840;2023-05-10T09:15:20;41.23;;;27.77;;
6019;SDS011;3038;51.122;6.840;2023-05-10T09:17:46;42.47;;;28.20;;
6019;SDS011;3038;51.122;6.840;2023-05-10T09:20:12;40.50;;;27.20;;
6019;SDS011;3038;51.122;6.840;2023-05-10T09:22:38;33.83;;;26.13;;
6019;SDS011;3038;51.122;6.840;2023-05-10T09:25:04;33.17;;;26.23;;
6019;SDS011;3038;51.122;6.840;2023-05-10T09:27:33;33.33;;;24.73;;
6019;SDS011;3038;51.122;6.840;2023-05-10T09:29:59;31.77;;;24.80;;
6019;SDS011;3038;51.122;6.840;2023-05-10T09:35:07;28.43;;;22.40;;
6019;SDS011;3038;51.122;6.840;2023-05-10T09:37:33;27.67;;;21.40;;
6019;SDS011;3038;51.122;6.840;2023-05-10T09:39:58;30.73;;;22.30;;
6019;SDS011;3038;51.122;6.840;2023-05-10T09:42:24;33.70;;;22.67;;
6019;SDS011;3038;51.122;6.840;2023-05-10T09:44:49;25.43;;;19.40;;
6019;SDS011;3038;51.122;6.840;2023-05-10T09:47:17;25.63;;;21.47;;
6019;SDS011;3038;51.122;6.840;2023-05-10T09:49:49;23.93;;;20.50;;
6019;SDS011;3038;51.122;6.840;2023-05-10T09:52:16;22.60;;;20.03;;
6019;SDS011;3038;51.122;6.840;2023-05-10T09:54:44;24.37;;;20.80;;
6019;SDS011;3038;51.122;6.840;2023-05-10T09:57:21;20.50;;;18.40;;
6019;SDS011;3038;51.122;6.840;2023-05-10T09:59:47;19.20;;;17.23;;
6019;SDS011;3038;51.122;6.840;2023-05-10T10:02:13;21.33;;;18.67;;
6019;SDS011;3038;51.122;6.840;2023-05-10T10:04:48;22.93;;;18.83;;
6019;SDS011;3038;51.122;6.840;2023-05-10T10:07:14;22.50;;;19.27;;
6019;SDS011;3038;51.122;6.840;2023-05-10T10:09:40;23.57;;;21.10;;
6019;SDS011;3038;51.122;6.840;2023-05-10T10:12:06;22.63;;;19.37;;
6019;SDS011;3038;51.122;6.840;2023-05-10T10:14:31;19.60;;;15.83;;
6019;SDS011;3038;51.122;6.840;2023-05-10T10:16:57;24.17;;;19.33;;
6019;SDS011;3038;51.122;6.840;2023-05-10T10:19:25;24.97;;;18.83;;
6019;SDS011;3038;51.122;6.840;2023-05-10T10:21:51;23.00;;;20.50;;
6019;SDS011;3038;51.122;6.840;2023-05-10T10:24:17;22.33;;;18.53;;
6019;SDS011;3038;51.122;6.840;2023-05-10T10:26:42;21.20;;;16.73;;
6019;SDS011;3038;51.122;6.840;2023-05-10T10:29:20;20.40;;;17.90;;
6019;SDS011;3038;51.122;6.840;2023-05-10T10:31:51;18.63;;;15.93;;
6019;SDS011;3038;51.122;6.840;2023-05-10T10:34:29;16.70;;;14.23;;
6019;SDS011;3038;51.122;6.840;2023-05-10T10:36:57;22.57;;;17.77;;
6019;SDS011;3038;51.122;6.840;2023-05-10T10:39:35;20.90;;;17.40;;
6019;SDS011;3038;51.122;6.840;2023-05-10T10:42:12;20.00;;;17.30;;
6019;SDS011;3038;51.122;6.840;2023-05-10T10:45:25;21.40;;;18.00;;
6019;SDS011;3038;51.122;6.840;2023-05-10T10:48:24;19.00;;;17.00;;
6019;SDS011;3038;51.122;6.840;2023-05-10T10:51:08;22.57;;;18.07;;
6019;SDS011;3038;51.122;6.840;2023-05-10T10:54:32;19.40;;;16.17;;
6019;SDS011;3038;51.122;6.840;2023-05-10T10:57:13;16.87;;;15.13;;
6019;SDS011;3038;51.122;6.840;2023-05-10T11:03:21;17.07;;;15.30;;
6019;SDS011;3038;51.122;6.840;2023-05-10T11:06:32;18.77;;;16.33;;
6019;SDS011;3038;51.122;6.840;2023-05-10T11:09:27;18.00;;;13.77;;
6019;SDS011;3038;51.122;6.840;2023-05-10T11:12:50;16.30;;;14.03;;
6019;SDS011;3038;51.122;6.840;2023-05-10T11:15:39;16.97;;;14.13;;
6019;SDS011;3038;51.122;6.840;2023-05-10T11:18:39;15.50;;;12.90;;
6019;SDS011;3038;51.122;6.840;2023-05-10T11:21:15;16.73;;;14.60;;
6019;SDS011;3038;51.122;6.840;2023-05-10T11:26:08;16.77;;;15.17;;
6019;SDS011;3038;51.122;6.840;2023-05-10T11:28:51;17.40;;;15.40;;
6019;SDS011;3038;51.122;6.840;2023-05-10T11:31:48;15.00;;;13.40;;
6019;SDS011;3038;51.122;6.840;2023-05-10T11:35:08;16.33;;;14.73;;
6019;SDS011;3038;51.122;6.840;2023-05-10T11:38:06;15.93;;;13.60;;
6019;SDS011;3038;51.122;6.840;2023-05-10T11:40:44;12.60;;;11.37;;
6019;SDS011;3038;51.122;6.840;2023-05-10T11:43:23;14.13;;;12.63;;
6019;SDS011;3038;51.122;6.840;2023-05-10T11:45:56;14.47;;;12.97;;
6019;SDS011;3038;51.122;6.840;2023-05-10T11:48:22;15.73;;;13.80;;
6019;SDS011;3038;51.122;6.840;2023-05-10T11:50:49;15.53;;;13.93;;
6019;SDS011;3038;51.122;6.840;2023-05-10T11:53:15;17.10;;;13.77;;
6019;SDS011;3038;51.122;6.840;2023-05-10T11:55:40;13.83;;;12.43;;
6019;SDS011;3038;51.122;6.840;2023-05-10T11:58:05;15.30;;;12.57;;
6019;SDS011;3038;51.122;6.840;2023-05-10T12:00:31;14.20;;;12.10;;
6019;SDS011;3038;51.122;6.840;2023-05-10T12:03:00;17.40;;;12.20;;
6019;SDS011;3038;51.122;6.840;2023-05-10T12:05:26;13.13;;;11.80;;
6019;SDS011;3038;51.122;6.840;2023-05-10T12:07:51;13.70;;;12.33;;
6019;SDS011;3038;51.122;6.840;2023-05-10T12:10:17;15.20;;;11.50;;
6019;SDS011;3038;51.122;6.840;2023-05-10T12:12:51;13.57;;;11.93;;
6019;SDS011;3038;51.122;6.840;2023-05-10T12:15:18;13.10;;;11.50;;
6019;SDS011;3038;51.122;6.840;2023-05-10T12:17:45;14.83;;;13.00;;
6019;SDS011;3038;51.122;6.840;2023-05-10T12:20:15;14.10;;;11.73;;
6019;SDS011;3038;51.122;6.840;2023-05-10T12:22:49;12.63;;;11.33;;
6019;SDS011;3038;51.122;6.840;2023-05-10T12:25:14;12.10;;;10.90;;
6019;SDS011;3038;51.122;6.840;2023-05-10T12:27:55;15.33;;;11.17;;
6019;SDS011;3038;51.122;6.840;2023-05-10T12:30:46;11.17;;;10.07;;
6019;SDS011;3038;51.122;6.840;2023-05-10T12:33:23;11.90;;;10.80;;
6019;SDS011;3038;51.122;6.840;2023-05-10T12:35:52;12.60;;;11.20;;
6019;SDS011;3038;51.122;6.840;2023-05-10T12:38:37;12.40;;;11.20;;
6019;SDS011;3038;51.122;6.840;2023-05-10T12:41:09;12.10;;;10.80;;
6019;SDS011;3038;51.122;6.840;2023-05-10T12:43:35;12.70;;;11.40;;
6019;SDS011;3038;51.122;6.840;2023-05-10T12:46:06;11.20;;;10.20;;
6019;SDS011;3038;51.122;6.840;2023-05-10T12:48:59;14.00;;;11.50;;
6019;SDS011;3038;51.122;6.840;2023-05-10T12:51:45;12.37;;;11.03;;
6019;SDS011;3038;51.122;6.840;2023-05-10T12:54:41;15.33;;;13.93;;
6019;SDS011;3038;51.122;6.840;2023-05-10T12:57:09;16.87;;;15.20;;
6019;SDS011;3038;51.122;6.840;2023-05-10T12:59:58;20.83;;;16.87;;
6019;SDS011;3038;51.122;6.840;2023-05-10T13:07:01;19.10;;;17.10;;
6019;SDS011;3038;51.122;6.840;2023-05-10T13:10:46;20.27;;;18.00;;
6019;SDS011;3038;51.122;6.840;2023-05-10T13:14:20;21.30;;;19.30;;
6019;SDS011;3038;51.122;6.840;2023-05-10T13:17:54;21.93;;;19.70;;
6019;SDS011;3038;51.122;6.840;2023-05-10T13:20:38;23.43;;;20.93;;
6019;SDS011;3038;51.122;6.840;2023-05-10T13:23:23;23.50;;;21.10;;
6019;SDS011;3038;51.122;6.840;2023-05-10T13:26:38;21.97;;;19.73;;
6019;SDS011;3038;51.122;6.840;2023-05-10T13:30:20;22.30;;;20.10;;
6019;SDS011;3038;51.122;6.840;2023-05-10T13:33:28;22.43;;;20.07;;
6019;SDS011;3038;51.122;6.840;2023-05-10T13:36:35;21.07;;;18.50;;
6019;SDS011;3038;51.122;6.840;2023-05-10T13:39:03;21.87;;;19.53;;
6019;SDS011;3038;51.122;6.840;2023-05-10T13:41:35;16.30;;;14.70;;
6019;SDS011;3038;51.122;6.840;2023-05-10T13:44:13;18.47;;;16.57;;
6019;SDS011;3038;51.122;6.840;2023-05-10T13:46:46;18.80;;;16.53;;
6019;SDS011;3038;51.122;6.840;2023-05-10T13:49:17;18.13;;;16.40;;
6019;SDS011;3038;51.122;6.840;2023-05-10T13:52:07;19.27;;;16.80;;
6019;SDS011;3038;51.122;6.840;2023-05-10T13:54:36;13.20;;;11.80;;
6019;SDS011;3038;51.122;6.840;2023-05-10T13:57:09;18.43;;;16.53;;
6019;SDS011;3038;51.122;6.840;2023-05-10T13:59:42;14.13;;;12.60;;
6019;SDS011;3038;51.122;6.840;2023-05-10T14:02:10;11.83;;;10.47;;
6019;SDS011;3038;51.122;6.840;2023-05-10T14:04:37;13.23;;;11.83;;
6019;SDS011;3038;51.122;6.840;2023-05-10T14:07:02;12.40;;;10.40;;
6019;SDS011;3038;51.122;6.840;2023-05-10T14:09:28;11.70;;;9.83;;
6019;SDS011;3038;51.122;6.840;2023-05-10T14:11:53;10.60;;;9.50;;
6019;SDS011;3038;51.122;6.840;2023-05-10T14:14:19;10.70;;;9.60;;
6019;SDS011;3038;51.122;6.840;2023-05-10T14:16:45;11.77;;;10.60;;
6019;SDS011;3038;51.122;6.840;2023-05-10T14:19:10;12.83;;;11.53;;
6019;SDS011;3038;51.122;6.840;2023-05-10T14:21:36;10.77;;;9.43;;
6019;SDS011;3038;51.122;6.840;2023-05-10T14:24:02;11.27;;;10.13;;
6019;SDS011;3038;51.122;6.840;2023-05-10T14:26:27;13.30;;;11.23;;
6019;SDS011;3038;51.122;6.840;2023-05-10T14:28:53;12.60;;;11.17;;
6019;SDS011;3038;51.122;6.840;2023-05-10T14:31:18;13.17;;;11.53;;
6019;SDS011;3038;51.122;6.840;2023-05-10T14:33:45;11.80;;;10.50;;
6019;SDS011;3038;51.122;6.840;2023-05-10T14:36:11;11.50;;;9.30;;
6019;SDS011;3038;51.122;6.840;2023-05-10T14:38:36;9.43;;;8.40;;
6019;SDS011;3038;51.122;6.840;2023-05-10T14:41:02;9.20;;;8.13;;
6019;SDS011;3038;51.122;6.840;2023-05-10T14:43:27;10.13;;;8.43;;
6019;SDS011;3038;51.122;6.840;2023-05-10T14:45:53;11.43;;;9.67;;
6019;SDS011;3038;51.122;6.840;2023-05-10T14:48:22;10.80;;;9.70;;
6019;SDS011;3038;51.122;6.840;2023-05-10T14:51:01;11.73;;;10.53;;
6019;SDS011;3038;51.122;6.840;2023-05-10T14:53:26;10.40;;;9.40;;
6019;SDS011;3038;51.122;6.840;2023-05-10T14:56:29;11.43;;;10.03;;
6019;SDS011;3038;51.122;6.840;2023-05-10T14:58:55;9.60;;;8.70;;
6019;SDS011;3038;51.122;6.840;2023-05-10T15:01:23;11.90;;;10.70;;
6019;SDS011;3038;51.122;6.840;2023-05-10T15:03:49;11.63;;;10.10;;
6019;SDS011;3038;51.122;6.840;2023-05-10T15:06:47;11.60;;;10.40;;
6019;SDS011;3038;51.122;6.840;2023-05-10T15:09:41;10.90;;;9.57;;
6019;SDS011;3038;51.122;6.840;2023-05-10T15:12:19;11.87;;;10.73;;
6019;SDS011;3038;51.122;6.840;2023-05-10T15:15:18;10.87;;;9.60;;
6019;SDS011;3038;51.122;6.840;2023-05-10T15:18:11;11.10;;;10.00;;
6019;SDS011;3038;51.122;6.840;2023-05-10T15:21:09;13.07;;;11.70;;
6019;SDS011;3038;51.122;6.840;2023-05-10T15:23:40;10.80;;;9.80;;
6019;SDS011;3038;51.122;6.840;2023-05-10T15:26:12;11.10;;;9.97;;
6019;SDS011;3038;51.122;6.840;2023-05-10T15:28:37;12.27;;;11.07;;
6019;SDS011;3038;51.122;6.840;2023-05-10T15:31:03;10.67;;;9.70;;
6019;SDS011;3038;51.122;6.840;2023-05-10T15:33:28;10.13;;;8.80;;
6019;SDS011;3038;51.122;6.840;2023-05-10T15:35:54;8.90;;;8.10;;
6019;SDS011;3038;51.122;6.840;2023-05-10T15:38:19;9.47;;;8.57;;
6019;SDS011;3038;51.122;6.840;2023-05-10T15:40:48;8.53;;;7.77;;
6019;SDS011;3038;51.122;6.840;2023-05-10T15:43:16;9.77;;;8.77;;
6019;SDS011;3038;51.122;6.840;2023-05-10T15:45:42;7.50;;;6.90;;
6019;SDS011;3038;51.122;6.840;2023-05-10T15:48:07;7.07;;;6.30;;
6019;SDS011;3038;51.122;6.840;2023-05-10T15:50:36;7.80;;;6.80;;
6019;SDS011;3038;51.122;6.840;2023-05-10T15:53:02;7.53;;;6.93;;
6019;SDS011;3038;51.122;6.840;2023-05-10T15:55:27;8.47;;;6.63;;
6019;SDS011;3038;51.122;6.840;2023-05-10T15:57:53;7.37;;;6.67;;
6019;SDS011;3038;51.122;6.840;2023-05-10T16:00:18;7.67;;;7.00;;
6019;SDS011;3038;51.122;6.840;2023-05-10T16:02:47;6.93;;;6.33;;
6019;SDS011;3038;51.122;6.840;2023-05-10T16:05:13;7.07;;;6.40;;
6019;SDS011;3038;51.122;6.840;2023-05-10T16:07:38;7.33;;;5.97;;
6019;SDS011;3038;51.122;6.840;2023-05-10T16:10:15;6.37;;;5.80;;
6019;SDS011;3038;51.122;6.840;2023-05-10T16:12:43;7.43;;;6.07;;
6019;SDS011;3038;51.122;6.840;2023-05-10T16:15:30;6.93;;;6.23;;
6019;SDS011;3038;51.122;6.840;2023-05-10T16:18:04;6.03;;;5.40;;